createdAt,value
2023-01-08T00:01:36.874Z,1.98
2023-01-08T00:04:03.971Z,1.90
2023-01-08T00:06:31.346Z,2.63
2023-01-08T00:08:58.292Z,2.03
2023-01-08T00:11:25.548Z,1.67
2023-01-08T00:13:52.476Z,2.10
2023-01-08T00:16:20.485Z,2.20
2023-01-08T00:18:47.817Z,2.42
2023-01-08T00:21:15.077Z,2.33
2023-01-08T00:23:42.051Z,2.38
2023-01-08T00:26:10.876Z,2.33
2023-01-08T00:28:39.138Z,2.38
2023-01-08T00:31:08.418Z,1.88
2023-01-08T00:33:36.541Z,2.80
2023-01-08T00:36:15.224Z,2.40
2023-01-08T00:38:43.305Z,2.35
2023-01-08T00:41:11.043Z,2.47
2023-01-08T00:43:38.287Z,3.38
2023-01-08T00:46:06.088Z,2.80
2023-01-08T00:48:41.728Z,2.60
2023-01-08T00:51:09.358Z,3.05
2023-01-08T00:53:38.240Z,2.47
2023-01-08T00:56:08.627Z,2.53
2023-01-08T00:58:35.947Z,3.00
2023-01-08T01:01:03.016Z,2.90
2023-01-08T01:03:31.266Z,2.88
2023-01-08T01:06:03.467Z,2.70
2023-01-08T01:08:30.964Z,4.80
2023-01-08T01:10:57.987Z,2.65
2023-01-08T01:13:25.022Z,2.47
2023-01-08T01:16:02.755Z,3.92
2023-01-08T01:18:31.227Z,3.45
2023-01-08T01:20:58.235Z,4.38
2023-01-08T01:23:25.376Z,3.78
2023-01-08T01:25:52.821Z,4.15
2023-01-08T01:28:19.769Z,3.28
2023-01-08T01:30:53.226Z,3.38
2023-01-08T01:33:20.208Z,3.22
2023-01-08T01:35:47.112Z,2.92
2023-01-08T01:38:14.518Z,3.25
2023-01-08T01:40:44.767Z,2.70
2023-01-08T01:43:15.161Z,3.03
2023-01-08T01:45:43.434Z,2.97
2023-01-08T01:48:14.149Z,2.63
2023-01-08T01:50:47.036Z,2.58
2023-01-08T01:53:34.574Z,3.08
2023-01-08T01:56:04.569Z,2.50
2023-01-08T01:58:32.617Z,2.90
2023-01-08T02:01:04.470Z,3.25
2023-01-08T02:03:35.345Z,2.90
2023-01-08T02:06:26.659Z,3.05
2023-01-08T02:09:28.452Z,2.28
2023-01-08T02:12:18.523Z,2.78
2023-01-08T02:15:08.774Z,2.88
2023-01-08T02:17:56.151Z,2.60
2023-01-08T02:20:35.096Z,4.32
2023-01-08T02:23:13.859Z,2.90
2023-01-08T02:25:59.443Z,2.50
2023-01-08T02:28:27.830Z,2.60
2023-01-08T02:30:55.621Z,3.25
2023-01-08T02:33:24.324Z,2.70
2023-01-08T02:36:10.975Z,3.40
2023-01-08T02:38:45.041Z,2.17
2023-01-08T02:41:13.481Z,2.38
2023-01-08T02:43:48.185Z,1.95
2023-01-08T02:46:19.811Z,2.85
2023-01-08T02:48:51.194Z,2.10
2023-01-08T02:51:31.729Z,1.95
2023-01-08T02:54:03.401Z,3.22
2023-01-08T02:56:36.998Z,2.15
2023-01-08T02:59:07.233Z,2.00
2023-01-08T03:01:35.413Z,2.50
2023-01-08T03:04:18.996Z,1.83
2023-01-08T03:06:46.671Z,1.70
2023-01-08T03:09:14.572Z,2.28
2023-01-08T03:12:04.494Z,1.92
2023-01-08T03:14:45.338Z,1.38
2023-01-08T03:17:22.279Z,1.10
2023-01-08T03:19:54.410Z,1.90
2023-01-08T03:22:23.749Z,1.20
2023-01-08T03:24:54.530Z,1.27
2023-01-08T03:27:26.816Z,1.48
2023-01-08T03:29:56.066Z,1.05
2023-01-08T03:32:24.809Z,1.15
2023-01-08T03:34:55.736Z,1.02
2023-01-08T03:37:27.822Z,1.30
2023-01-08T03:40:05.185Z,0.90
2023-01-08T03:42:32.963Z,1.00
2023-01-08T03:45:00.534Z,1.15
2023-01-08T03:47:33.006Z,1.00
2023-01-08T03:50:07.799Z,0.93
2023-01-08T03:52:34.743Z,0.80
2023-01-08T03:55:01.672Z,0.93
2023-01-08T03:57:28.662Z,0.70
2023-01-08T03:59:55.616Z,1.00
2023-01-08T04:02:22.873Z,0.77
2023-01-08T04:04:49.970Z,0.70
2023-01-08T04:07:17.118Z,0.80
2023-01-08T04:09:44.032Z,0.80
2023-01-08T04:12:11.003Z,0.50
2023-01-08T04:14:37.946Z,0.80
2023-01-08T04:17:04.862Z,0.98
2023-01-08T04:19:31.879Z,1.15
2023-01-08T04:21:58.836Z,1.95
2023-01-08T04:24:25.821Z,0.95
2023-01-08T04:26:52.749Z,0.90
2023-01-08T04:29:19.676Z,0.80
2023-01-08T04:31:46.615Z,1.00
2023-01-08T04:34:13.575Z,0.85
2023-01-08T04:36:40.498Z,0.90
2023-01-08T04:39:07.978Z,0.90
2023-01-08T04:41:34.887Z,0.70
2023-01-08T04:44:01.815Z,0.80
2023-01-08T04:46:28.896Z,0.80
2023-01-08T04:48:55.865Z,0.80
2023-01-08T04:51:23.344Z,0.70
2023-01-08T04:53:50.304Z,0.90
2023-01-08T04:56:17.206Z,1.17
2023-01-08T04:58:44.149Z,0.90
2023-01-08T05:01:20.094Z,1.08
2023-01-08T05:03:47.285Z,1.13
2023-01-08T05:06:14.353Z,1.38
2023-01-08T05:08:41.345Z,1.50
2023-01-08T05:11:08.343Z,2.05
2023-01-08T05:13:35.263Z,1.73
2023-01-08T05:16:02.622Z,1.95
2023-01-08T05:18:30.968Z,2.58
2023-01-08T05:21:05.472Z,2.88
2023-01-08T05:23:33.921Z,2.30
2023-01-08T05:26:02.584Z,2.00
2023-01-08T05:28:29.802Z,2.63
2023-01-08T05:30:57.781Z,2.40
2023-01-08T05:33:25.522Z,3.50
2023-01-08T05:35:52.555Z,2.00
2023-01-08T05:38:19.509Z,2.85
2023-01-08T05:40:46.460Z,3.10
2023-01-08T05:43:13.488Z,3.25
2023-01-08T05:45:40.435Z,3.28
2023-01-08T05:48:08.297Z,3.00
2023-01-08T05:50:35.958Z,3.13
2023-01-08T05:53:07.757Z,2.97
2023-01-08T05:55:35.224Z,3.08
2023-01-08T05:58:06.389Z,3.60
2023-01-08T06:00:34.508Z,3.25
2023-01-08T06:03:01.458Z,3.17
2023-01-08T06:05:30.046Z,2.95
2023-01-08T06:07:57.774Z,3.88
2023-01-08T06:10:25.082Z,2.92
2023-01-08T06:12:52.139Z,3.13
2023-01-08T06:15:19.224Z,3.28
2023-01-08T06:17:46.128Z,4.82
2023-01-08T06:20:13.089Z,3.83
2023-01-08T06:22:40.058Z,3.35
2023-01-08T06:25:07.267Z,3.22
2023-01-08T06:27:34.217Z,3.50
2023-01-08T06:30:01.162Z,3.45
2023-01-08T06:32:28.098Z,3.20
2023-01-08T06:34:55.074Z,3.22
2023-01-08T06:37:22.047Z,2.67
2023-01-08T06:39:49.032Z,3.25
2023-01-08T06:42:16.072Z,3.45
2023-01-08T06:44:42.987Z,4.32
2023-01-08T06:47:10.019Z,3.63
2023-01-08T06:49:36.997Z,3.35
2023-01-08T06:52:03.992Z,4.32
2023-01-08T06:54:30.923Z,3.50
2023-01-08T06:56:57.941Z,4.82
2023-01-08T06:59:25.069Z,3.42
2023-01-08T07:01:52.104Z,4.38
2023-01-08T07:04:19.549Z,3.25
2023-01-08T07:06:47.105Z,3.50
2023-01-08T07:09:15.165Z,4.13
2023-01-08T07:11:42.688Z,4.47
2023-01-08T07:14:09.823Z,3.63
2023-01-08T07:16:37.396Z,3.60
2023-01-08T07:19:04.615Z,3.65
2023-01-08T07:21:31.737Z,4.57
2023-01-08T07:23:59.775Z,4.32
2023-01-08T07:26:27.743Z,3.55
2023-01-08T07:28:54.821Z,3.60
2023-01-08T07:31:22.062Z,3.92
2023-01-08T07:33:49.053Z,3.65
2023-01-08T07:36:16.518Z,3.78
2023-01-08T07:38:44.098Z,3.22
2023-01-08T07:41:13.300Z,4.32
2023-01-08T07:43:40.364Z,3.92
2023-01-08T07:46:07.490Z,4.13
2023-01-08T07:48:34.826Z,4.40
2023-01-08T07:51:03.545Z,4.30
2023-01-08T07:53:30.778Z,4.57
2023-01-08T07:56:08.801Z,4.38
2023-01-08T07:58:36.409Z,4.45
2023-01-08T08:01:04.289Z,4.15
2023-01-08T08:03:31.924Z,4.53
2023-01-08T08:06:01.244Z,3.90
2023-01-08T08:08:28.217Z,4.78
2023-01-08T08:10:55.273Z,4.35
2023-01-08T08:13:22.272Z,4.68
2023-01-08T08:15:49.287Z,4.35
2023-01-08T08:18:16.265Z,4.13
2023-01-08T08:20:43.251Z,4.72
2023-01-08T08:23:15.041Z,4.38
2023-01-08T08:25:43.335Z,3.72
2023-01-08T08:28:11.992Z,4.75
2023-01-08T08:30:42.091Z,5.10
2023-01-08T08:33:10.444Z,5.85
2023-01-08T08:35:37.905Z,4.88
2023-01-08T08:38:05.437Z,5.75
2023-01-08T08:40:32.581Z,4.75
2023-01-08T08:43:01.699Z,5.43
2023-01-08T08:45:29.202Z,6.18
2023-01-08T08:47:56.689Z,5.32
2023-01-08T08:50:24.000Z,5.68
2023-01-08T08:52:50.958Z,6.47
2023-01-08T08:55:18.183Z,4.55
2023-01-08T08:57:46.711Z,5.65
2023-01-08T09:00:14.902Z,5.47
2023-01-08T09:02:42.052Z,5.15
2023-01-08T09:05:09.325Z,6.05
2023-01-08T09:07:37.607Z,4.68
2023-01-08T09:10:05.409Z,4.60
2023-01-08T09:12:32.346Z,6.53
2023-01-08T09:14:59.273Z,5.07
2023-01-08T09:17:26.414Z,5.32
2023-01-08T09:19:53.439Z,5.05
2023-01-08T09:22:21.055Z,3.97
2023-01-08T09:24:48.056Z,4.63
2023-01-08T09:27:15.482Z,4.35
2023-01-08T09:29:42.496Z,4.82
2023-01-08T09:32:09.862Z,5.00
2023-01-08T09:34:36.908Z,6.30
2023-01-08T09:37:04.920Z,5.90
2023-01-08T09:39:32.842Z,5.07
2023-01-08T09:42:03.824Z,4.70
2023-01-08T09:44:38.171Z,4.85
2023-01-08T09:47:07.667Z,6.22
2023-01-08T09:49:42.619Z,5.43
2023-01-08T09:52:13.510Z,4.60
2023-01-08T09:54:41.745Z,4.57
2023-01-08T09:57:17.931Z,4.75
2023-01-08T09:59:48.031Z,5.43
2023-01-08T10:02:18.153Z,5.00
2023-01-08T10:04:46.936Z,7.10
2023-01-08T10:07:24.514Z,5.53
2023-01-08T10:09:53.163Z,4.55
2023-01-08T10:12:32.826Z,5.13
2023-01-08T10:15:08.487Z,5.38
2023-01-08T10:17:39.219Z,5.72
2023-01-08T10:20:26.564Z,4.63
2023-01-08T10:22:54.671Z,5.32
2023-01-08T10:25:25.654Z,4.05
2023-01-08T10:27:59.477Z,4.63
2023-01-08T10:30:37.788Z,4.60
2023-01-08T10:33:11.060Z,4.28
2023-01-08T10:35:40.523Z,4.93
2023-01-08T10:38:07.779Z,4.63
2023-01-08T10:40:47.298Z,4.47
2023-01-08T10:43:14.412Z,4.60
2023-01-08T10:45:44.054Z,4.63
2023-01-08T10:48:18.678Z,5.45
2023-01-08T10:50:45.765Z,4.43
2023-01-08T10:53:41.349Z,4.00
2023-01-08T10:56:25.336Z,4.18
2023-01-08T10:58:53.045Z,4.57
2023-01-08T11:01:31.395Z,4.30
2023-01-08T11:04:05.202Z,4.53
2023-01-08T11:06:42.457Z,3.83
2023-01-08T11:09:28.247Z,3.95
2023-01-08T11:11:55.744Z,4.82
2023-01-08T11:14:35.292Z,3.80
2023-01-08T11:17:10.827Z,4.97
2023-01-08T11:19:40.014Z,3.13
2023-01-08T11:22:28.277Z,4.25
2023-01-08T11:24:55.539Z,4.57
2023-01-08T11:27:37.115Z,3.92
2023-01-08T11:30:23.534Z,3.47
2023-01-08T11:33:06.393Z,3.63
2023-01-08T11:35:59.263Z,4.13
2023-01-08T11:38:30.087Z,4.05
2023-01-08T11:41:15.565Z,4.03
2023-01-08T11:43:46.610Z,4.47
2023-01-08T11:46:54.549Z,3.88
2023-01-08T11:49:24.470Z,5.22
2023-01-08T11:52:30.846Z,4.28
2023-01-08T11:54:57.809Z,4.45
2023-01-08T11:57:43.315Z,4.25
2023-01-08T12:00:22.094Z,4.22
2023-01-08T12:03:38.308Z,3.92
2023-01-08T12:06:37.088Z,5.30
2023-01-08T12:09:16.290Z,5.25
2023-01-08T12:12:18.269Z,4.88
2023-01-08T12:15:07.148Z,5.45
2023-01-08T12:17:46.233Z,4.60
2023-01-08T12:20:38.151Z,4.88
2023-01-08T12:23:42.087Z,3.95
2023-01-08T12:26:30.834Z,4.40
2023-01-08T12:29:06.713Z,5.03
2023-01-08T12:31:48.731Z,4.05
2023-01-08T12:34:33.713Z,3.30
2023-01-08T12:37:14.252Z,4.05
2023-01-08T12:39:56.806Z,4.00
2023-01-08T12:42:29.150Z,4.20
2023-01-08T12:44:59.121Z,4.32
2023-01-08T12:47:29.925Z,4.30
2023-01-08T12:50:10.303Z,4.53
2023-01-08T12:53:00.614Z,3.53
2023-01-08T12:55:32.488Z,3.78
2023-01-08T12:58:29.165Z,5.28
2023-01-08T13:01:25.259Z,3.08
2023-01-08T13:03:53.879Z,3.80
2023-01-08T13:06:22.095Z,3.78
2023-01-08T13:08:55.505Z,3.80
2023-01-08T13:11:38.460Z,3.70
2023-01-08T13:14:11.875Z,3.42
2023-01-08T13:16:41.418Z,3.20
2023-01-08T13:19:26.717Z,2.78
2023-01-08T13:22:01.074Z,3.05
2023-01-08T13:24:31.237Z,3.30
2023-01-08T13:27:26.864Z,2.90
2023-01-08T13:29:53.926Z,3.22
2023-01-08T13:32:42.659Z,2.35
2023-01-08T13:35:15.859Z,2.95
2023-01-08T13:37:44.054Z,2.65
2023-01-08T13:40:44.865Z,2.45
2023-01-08T13:43:19.625Z,2.38
2023-01-08T13:46:16.801Z,2.13
2023-01-08T13:49:01.675Z,2.15
2023-01-08T13:51:44.850Z,2.40
2023-01-08T13:54:15.009Z,2.33
2023-01-08T13:56:44.393Z,2.50
2023-01-08T13:59:25.165Z,1.60
2023-01-08T14:01:56.790Z,1.67
2023-01-08T14:04:24.865Z,2.30
2023-01-08T14:06:51.954Z,2.65
2023-01-08T14:09:23.962Z,2.78
2023-01-08T14:11:55.991Z,2.38
2023-01-08T14:14:24.460Z,2.03
2023-01-08T14:16:53.202Z,2.08
2023-01-08T14:19:23.654Z,1.98
2023-01-08T14:21:57.759Z,2.00
2023-01-08T14:24:26.153Z,2.33
2023-01-08T14:26:55.654Z,3.17
2023-01-08T14:29:25.137Z,2.10
2023-01-08T14:31:56.851Z,1.80
2023-01-08T14:34:26.503Z,2.08
2023-01-08T14:36:55.389Z,2.35
2023-01-08T14:39:25.052Z,1.85
2023-01-08T14:42:13.014Z,1.83
2023-01-08T14:44:42.611Z,1.80
2023-01-08T14:47:19.072Z,1.60
2023-01-08T14:49:52.274Z,1.88
2023-01-08T14:52:21.245Z,1.65
2023-01-08T14:54:53.319Z,1.45
2023-01-08T14:57:22.180Z,1.70
2023-01-08T15:00:00.209Z,1.45
2023-01-08T15:02:32.090Z,1.38
2023-01-08T15:05:29.535Z,1.60
2023-01-08T15:08:22.780Z,1.83
2023-01-08T15:11:01.537Z,2.65
2023-01-08T15:13:38.192Z,1.50
2023-01-08T15:16:25.059Z,1.55
2023-01-08T15:19:02.633Z,1.20
2023-01-08T15:21:29.789Z,2.15
2023-01-08T15:23:58.399Z,1.50
2023-01-08T15:26:25.445Z,2.40
2023-01-08T15:28:58.303Z,1.40
2023-01-08T15:31:32.614Z,2.05
2023-01-08T15:34:00.802Z,1.85
2023-01-08T15:36:28.001Z,1.58
2023-01-08T15:38:58.112Z,1.90
2023-01-08T15:42:01.625Z,1.65
2023-01-08T15:44:28.873Z,2.10
2023-01-08T15:46:56.076Z,2.00
2023-01-08T15:49:23.286Z,1.88
2023-01-08T15:51:52.507Z,1.40
2023-01-08T15:54:23.696Z,1.92
2023-01-08T15:56:50.997Z,2.20
2023-01-08T15:59:18.088Z,1.85
2023-01-08T16:01:45.347Z,1.42
2023-01-08T16:04:12.590Z,1.80
2023-01-08T16:06:42.562Z,2.13
2023-01-08T16:09:09.666Z,2.92
2023-01-08T16:11:36.830Z,1.73
2023-01-08T16:14:04.155Z,2.75
2023-01-08T16:16:31.765Z,2.30
2023-01-08T16:18:59.503Z,1.65
2023-01-08T16:21:26.543Z,2.00
2023-01-08T16:23:53.635Z,1.70
2023-01-08T16:26:20.693Z,1.90
2023-01-08T16:28:48.119Z,1.95
2023-01-08T16:31:15.153Z,2.20
2023-01-08T16:33:42.170Z,2.05
2023-01-08T16:36:09.759Z,2.70
2023-01-08T16:38:37.239Z,1.70
2023-01-08T16:41:05.353Z,2.05
2023-01-08T16:43:39.842Z,2.15
2023-01-08T16:46:12.974Z,2.35
2023-01-08T16:48:41.066Z,2.40
2023-01-08T16:51:08.039Z,3.58
2023-01-08T16:53:35.916Z,2.03
2023-01-08T16:56:04.202Z,2.17
2023-01-08T16:58:31.424Z,2.05
2023-01-08T17:00:59.097Z,3.05
2023-01-08T17:03:26.149Z,2.55
2023-01-08T17:05:53.655Z,2.33
2023-01-08T17:08:20.785Z,1.85
2023-01-08T17:10:47.834Z,1.77
2023-01-08T17:13:14.837Z,2.25
2023-01-08T17:15:41.879Z,2.10
2023-01-08T17:18:08.836Z,2.28
2023-01-08T17:20:36.382Z,1.92
2023-01-08T17:23:03.309Z,2.28
2023-01-08T17:25:30.429Z,2.40
2023-01-08T17:27:57.374Z,2.40
2023-01-08T17:30:24.311Z,2.22
2023-01-08T17:32:51.300Z,2.15
2023-01-08T17:35:18.372Z,2.67
2023-01-08T17:37:45.319Z,1.33
2023-01-08T17:40:12.710Z,2.20
2023-01-08T17:42:39.681Z,1.92
2023-01-08T17:45:07.325Z,1.70
2023-01-08T17:47:35.168Z,2.55
2023-01-08T17:50:03.469Z,2.60
2023-01-08T17:52:30.368Z,2.00
2023-01-08T17:54:57.327Z,2.03
2023-01-08T17:57:24.329Z,1.70
2023-01-08T17:59:51.293Z,2.03
2023-01-08T18:02:18.397Z,1.70
2023-01-08T18:04:49.033Z,1.60
2023-01-08T18:07:16.085Z,1.40
2023-01-08T18:09:43.236Z,1.60
2023-01-08T18:12:10.315Z,2.10
2023-01-08T18:14:39.059Z,2.00
2023-01-08T18:17:06.413Z,1.70
2023-01-08T18:19:33.387Z,1.63
2023-01-08T18:22:01.200Z,1.58
2023-01-08T18:24:28.286Z,1.70
2023-01-08T18:26:55.347Z,2.22
2023-01-08T18:29:22.316Z,1.73
2023-01-08T18:31:49.281Z,2.05
2023-01-08T18:34:16.323Z,1.70
2023-01-08T18:36:43.323Z,1.55
2023-01-08T18:39:12.632Z,1.88
2023-01-08T18:41:58.092Z,1.85
2023-01-08T18:44:25.257Z,1.70
2023-01-08T18:46:52.222Z,2.47
2023-01-08T18:49:20.323Z,2.70
2023-01-08T18:51:47.388Z,2.17
2023-01-08T18:54:14.839Z,1.77
2023-01-08T18:56:42.029Z,1.85
2023-01-08T18:59:10.578Z,2.05
2023-01-08T19:01:37.723Z,1.98
2023-01-08T19:04:05.999Z,1.70
2023-01-08T19:06:33.306Z,1.98
2023-01-08T19:09:01.665Z,2.05
2023-01-08T19:11:29.227Z,1.70
2023-01-08T19:13:57.621Z,1.80
2023-01-08T19:16:24.985Z,2.10
2023-01-08T19:18:52.044Z,2.72
2023-01-08T19:21:19.691Z,2.45
2023-01-08T19:23:47.742Z,2.10
2023-01-08T19:26:14.970Z,1.95
2023-01-08T19:28:43.086Z,2.10
2023-01-08T19:31:13.745Z,2.00
2023-01-08T19:33:41.368Z,2.55
2023-01-08T19:36:12.833Z,1.98
2023-01-08T19:38:40.463Z,2.10
2023-01-08T19:41:26.648Z,2.15
2023-01-08T19:43:55.061Z,2.45
2023-01-08T19:46:22.605Z,1.60
2023-01-08T19:48:49.685Z,2.20
2023-01-08T19:51:16.649Z,3.70
2023-01-08T19:53:43.667Z,2.30
2023-01-08T19:56:13.436Z,1.90
2023-01-08T19:58:40.568Z,3.38
2023-01-08T20:01:16.820Z,3.17
2023-01-08T20:03:44.676Z,1.98
2023-01-08T20:06:23.001Z,2.30
2023-01-08T20:08:53.241Z,1.77
2023-01-08T20:11:22.526Z,1.90
2023-01-08T20:13:50.583Z,2.00
2023-01-08T20:16:19.313Z,1.80
2023-01-08T20:18:46.735Z,1.70
2023-01-08T20:21:16.985Z,2.78
2023-01-08T20:23:45.046Z,1.98
2023-01-08T20:26:18.287Z,2.05
2023-01-08T20:28:46.461Z,3.05
2023-01-08T20:31:15.695Z,2.08
2023-01-08T20:33:43.237Z,2.50
2023-01-08T20:36:16.854Z,2.35
2023-01-08T20:38:44.545Z,2.15
2023-01-08T20:41:12.164Z,2.70
2023-01-08T20:43:40.985Z,2.58
2023-01-08T20:46:14.002Z,2.10
2023-01-08T20:48:47.811Z,2.15
2023-01-08T20:51:15.666Z,1.63
2023-01-08T20:53:42.878Z,1.80
2023-01-08T20:56:15.130Z,1.65
2023-01-08T20:58:46.935Z,1.80
2023-01-08T21:01:18.692Z,1.85
2023-01-08T21:03:46.600Z,2.10
2023-01-08T21:06:19.841Z,1.70
2023-01-08T21:08:50.220Z,1.83
2023-01-08T21:11:18.087Z,2.65
2023-01-08T21:13:45.601Z,1.85
2023-01-08T21:16:16.101Z,2.00
2023-01-08T21:18:47.323Z,2.15
2023-01-08T21:21:16.460Z,2.70
2023-01-08T21:23:43.932Z,2.00
2023-01-08T21:26:12.091Z,1.77
2023-01-08T21:28:40.818Z,1.92
2023-01-08T21:31:14.510Z,1.85
2023-01-08T21:33:42.159Z,1.52
2023-01-08T21:36:13.106Z,2.00
2023-01-08T21:38:41.037Z,2.25
2023-01-08T21:41:10.983Z,1.52
2023-01-08T21:43:56.622Z,1.70
2023-01-08T21:46:28.176Z,2.15
2023-01-08T21:48:55.190Z,1.90
2023-01-08T21:51:40.382Z,2.10
2023-01-08T21:54:07.296Z,1.75
2023-01-08T21:56:34.290Z,2.00
2023-01-08T21:59:01.401Z,2.13
2023-01-08T22:01:28.567Z,1.40
2023-01-08T22:03:55.634Z,1.77
2023-01-08T22:06:22.619Z,1.98
2023-01-08T22:08:54.615Z,2.72
2023-01-08T22:11:23.209Z,1.83
2023-01-08T22:13:50.122Z,1.70
2023-01-08T22:16:17.118Z,3.00
2023-01-08T22:18:44.382Z,2.10
2023-01-08T22:21:13.157Z,2.55
2023-01-08T22:23:40.193Z,2.38
2023-01-08T22:26:10.176Z,1.83
2023-01-08T22:28:40.358Z,2.28
2023-01-08T22:31:12.339Z,2.08
2023-01-08T22:33:39.950Z,2.22
2023-01-08T22:36:10.012Z,1.98
2023-01-08T22:38:37.714Z,3.25
2023-01-08T22:41:05.221Z,2.53
2023-01-08T22:43:32.158Z,2.33
2023-01-08T22:46:00.519Z,2.92
2023-01-08T22:48:28.113Z,1.83
2023-01-08T22:50:55.010Z,1.92
2023-01-08T22:53:22.043Z,2.55
2023-01-08T22:55:49.061Z,2.33
2023-01-08T22:58:17.324Z,1.90
2023-01-08T23:00:45.430Z,2.08
2023-01-08T23:03:13.287Z,2.65
2023-01-08T23:05:40.751Z,2.45
2023-01-08T23:08:08.632Z,2.05
2023-01-08T23:10:35.877Z,2.38
2023-01-08T23:13:02.893Z,2.72
2023-01-08T23:15:30.341Z,2.47
2023-01-08T23:17:57.248Z,2.15
2023-01-08T23:20:25.114Z,2.35
2023-01-08T23:22:52.040Z,2.40
2023-01-08T23:25:19.050Z,3.35
2023-01-08T23:27:46.072Z,2.00
2023-01-08T23:30:13.245Z,2.42
2023-01-08T23:32:40.406Z,2.63
2023-01-08T23:35:07.667Z,2.38
2023-01-08T23:37:34.840Z,2.20
2023-01-08T23:40:01.905Z,2.55
2023-01-08T23:42:30.030Z,1.80
2023-01-08T23:44:56.983Z,2.85
2023-01-08T23:47:23.939Z,2.10
2023-01-08T23:49:50.898Z,3.17
2023-01-08T23:52:17.831Z,3.78
2023-01-08T23:54:44.799Z,2.63
2023-01-08T23:57:11.780Z,2.85
2023-01-08T23:59:38.767Z,2.60
